首页
METAR-TAF:

METAR-TAF

机场 :

日内瓦国际机场

日内瓦, 瑞士

纬度: 46-15N, 经度: 006-08E, 海拔: 420米

当前天气观测

该预报发布于40分钟前的15:50 UTC
风速15节,风向东北
温度 8°C
湿度 66%
气压 1028 hPa
能见度10公里或以上
多云层高于3200英尺

METAR: LSGG 271550Z 04015KT 9999 BKN032 08/02 Q1028 NOSIG

时间: 17:30 (16:30 UTC)

预报

该预报发布于2小时和5分钟前的14:25 UTC
预报有效从27日的 15点(UTC)到 28日的 21点(UTC)
风速15节,风向东北,有时为25节阵风
能见度10公里或以上
多云层高于3000英尺
成为
从 28日的 00点(UTC)到 28日的 03点(UTC)
风速5节,风向东北
几率 30%
从 28日的 02点(UTC)到 28日的 09点(UTC)
多云层高于1400英尺

TAF: LSGG 271425Z 2715/2821 04015G25KT 9999 BKN030 TX08/2715Z TN02/2806Z TX10/2814Z BECMG 2800/2803 05005KT PROB30 2802/2809 BKN014

超过4000个机场的气象观测和天气预报(METAR&TAF报告)。

可查询的气象台以黄色和红色小点在地图上表示。

将鼠标移到小点上方,可查看气象台名称。

然后点击查看天气观测和预报。

如需切换地图:点击带黑十字的绿色按钮放大地图;点击带横线的绿色按钮缩小地图;或者点击绿色箭头查看邻近地区的地图。


METAR-TAF: